Time;durP1;ratioP1;P1;durP2;ratioP2;P2;SDS_P1;SDS_P2;PMS_P1;PMS_P2;Temp;Humidity;BMP_temperature;BMP_pressure;BME280_temperature;BME280_humidity;BME280_pressure;Samples;Min_cycle;Max_cycle;Signal;HPM_P1;HPM_P2
2022/06/06 00:00:12;;;;;;;3.40;1.27;;;16.80;99.90;;;;;;5092396;28;20493;-44
2022/06/06 00:02:40;;;;;;;3.37;1.13;;;16.80;99.90;;;;;;5093189;28;20451;-48
2022/06/06 00:05:08;;;;;;;3.97;1.40;;;16.80;99.90;;;;;;5093284;28;20447;-44
2022/06/06 00:07:35;;;;;;;1.80;1.37;;;16.60;99.90;;;;;;5093300;28;20448;-44
2022/06/06 00:10:04;;;;;;;1.90;1.30;;;16.50;99.90;;;;;;5092568;28;20491;-45
2022/06/06 00:12:31;;;;;;;2.17;1.20;;;16.50;99.90;;;;;;5093424;28;20567;-44
2022/06/06 00:14:59;;;;;;;1.63;1.17;;;16.60;99.90;;;;;;5092547;28;20447;-45
2022/06/06 00:17:26;;;;;;;2.20;1.40;;;16.60;99.90;;;;;;5092954;28;20538;-44
2022/06/06 00:19:53;;;;;;;1.70;1.20;;;16.40;99.90;;;;;;5092276;28;20568;-45
2022/06/06 00:22:20;;;;;;;2.13;1.30;;;16.50;99.90;;;;;;5092652;28;20947;-44
2022/06/06 00:24:47;;;;;;;1.33;1.00;;;16.60;99.90;;;;;;5092625;28;20485;-44
2022/06/06 00:27:14;;;;;;;2.30;1.17;;;16.50;99.90;;;;;;5092893;28;20435;-44
2022/06/06 00:29:41;;;;;;;1.50;1.20;;;16.40;99.90;;;;;;5092266;28;20498;-44
2022/06/06 00:34:55;;;;;;;3.23;1.03;;;16.60;99.90;;;;;;5092448;28;20427;-44
2022/06/06 00:37:27;;;;;;;4.10;1.40;;;16.70;99.90;;;;;;5092657;28;20528;-45
2022/06/06 00:39:55;;;;;;;2.03;1.20;;;16.70;99.90;;;;;;5091942;28;21002;-46
2022/06/06 00:42:25;;;;;;;1.90;1.20;;;16.70;99.90;;;;;;5092228;28;20473;-47
2022/06/06 00:45:18;;;;;;;2.13;1.10;;;16.70;99.90;;;;;;5092048;28;20472;-49
2022/06/06 00:47:49;;;;;;;1.70;1.10;;;16.50;99.90;;;;;;5092303;28;20443;-44
2022/06/06 00:50:20;;;;;;;1.80;1.23;;;16.10;99.90;;;;;;5091717;28;20463;-44
2022/06/06 00:52:50;;;;;;;1.50;1.30;;;16.20;99.90;;;;;;5091993;28;20435;-44
2022/06/06 00:55:20;;;;;;;2.90;1.37;;;16.40;99.90;;;;;;5092246;28;20467;-46
2022/06/06 00:57:50;;;;;;;3.23;1.60;;;16.50;99.90;;;;;;5092134;28;20779;-43
2022/06/06 01:00:20;;;;;;;1.23;0.90;;;16.50;99.90;;;;;;5091666;28;20510;-46
2022/06/06 01:02:53;;;;;;;1.30;1.10;;;16.50;99.90;;;;;;5092336;28;20490;-44
2022/06/06 01:05:22;;;;;;;2.33;1.30;;;16.40;99.90;;;;;;5092024;28;20451;-44
2022/06/06 01:07:49;;;;;;;1.90;1.00;;;16.30;99.90;;;;;;5092234;28;20884;-44
2022/06/06 01:10:16;;;;;;;3.20;1.40;;;16.10;99.90;;;;;;5091498;28;20455;-46
2022/06/06 01:12:47;;;;;;;5.20;1.30;;;15.80;99.90;;;;;;5091159;28;20482;-44
2022/06/06 01:15:16;;;;;;;2.70;1.20;;;15.60;99.90;;;;;;5091464;28;20944;-47
2022/06/06 01:17:52;;;;;;;1.87;1.40;;;15.50;99.90;;;;;;5091768;28;20447;-43
2022/06/06 01:20:40;;;;;;;1.90;1.30;;;15.60;99.90;;;;;;5091565;28;20567;-44
2022/06/06 01:23:26;;;;;;;3.00;1.23;;;15.70;99.90;;;;;;5092038;28;20543;-44
2022/06/06 01:26:37;;;;;;;2.17;1.47;;;15.80;99.90;;;;;;5091473;28;20504;-44
2022/06/06 01:29:10;;;;;;;2.90;1.47;;;15.90;99.90;;;;;;5091344;28;20502;-43
2022/06/06 01:31:43;;;;;;;1.73;1.33;;;16.00;99.90;;;;;;5091930;28;20469;-44
2022/06/06 01:34:12;;;;;;;1.53;1.13;;;16.00;99.90;;;;;;5091510;28;20508;-44
2022/06/06 01:36:40;;;;;;;1.67;1.10;;;16.10;99.90;;;;;;5091999;28;20475;-47
2022/06/06 01:39:10;;;;;;;2.10;1.57;;;16.00;99.90;;;;;;5091185;28;20976;-44
2022/06/06 01:41:48;;;;;;;3.00;1.60;;;15.80;99.90;;;;;;5091629;28;20511;-48
2022/06/06 01:44:25;;;;;;;1.60;1.30;;;15.80;99.90;;;;;;5091421;28;21038;-44
2022/06/06 01:46:52;;;;;;;5.47;1.60;;;15.80;99.90;;;;;;5091445;28;20447;-44
2022/06/06 01:51:59;;;;;;;2.30;1.17;;;16.00;99.90;;;;;;5029315;28;20481;-46
2022/06/06 01:54:27;;;;;;;2.10;1.23;;;16.00;99.90;;;;;;5031379;28;20797;-46
2022/06/06 01:56:54;;;;;;;1.87;1.33;;;16.00;99.90;;;;;;5031254;28;20492;-45
2022/06/06 01:59:23;;;;;;;5.23;1.53;;;15.80;99.90;;;;;;5030825;28;20449;-45
2022/06/06 02:01:49;;;;;;;2.57;1.60;;;15.90;99.90;;;;;;5030731;28;20473;-45
2022/06/06 02:04:18;;;;;;;2.47;1.23;;;16.00;99.90;;;;;;5031025;28;21014;-45
2022/06/06 02:06:45;;;;;;;1.93;1.20;;;16.00;99.90;;;;;;5031029;28;20453;-46
2022/06/06 02:09:12;;;;;;;1.97;1.10;;;16.10;99.90;;;;;;5030835;28;20560;-45
2022/06/06 02:11:40;;;;;;;6.97;2.37;;;16.10;99.90;;;;;;5031418;28;20860;-46
2022/06/06 02:14:08;;;;;;;3.50;1.60;;;16.00;99.90;;;;;;5030899;28;20508;-45
2022/06/06 02:16:36;;;;;;;5.20;2.07;;;16.00;99.90;;;;;;5030939;28;20442;-45
2022/06/06 02:19:03;;;;;;;4.20;1.50;;;16.00;99.90;;;;;;5030851;28;20442;-46
2022/06/06 02:21:30;;;;;;;1.93;1.27;;;16.00;99.90;;;;;;5030815;28;20482;-47
2022/06/06 02:23:57;;;;;;;6.20;1.33;;;16.00;99.90;;;;;;5034048;28;20818;-45
2022/06/06 02:26:24;;;;;;;3.90;1.90;;;15.70;99.90;;;;;;5034668;28;20536;-47
2022/06/06 02:28:51;;;;;;;2.47;1.53;;;15.60;99.90;;;;;;5034868;28;20477;-45
2022/06/06 02:31:18;;;;;;;3.87;1.77;;;15.70;99.90;;;;;;5035018;28;20512;-45
2022/06/06 02:33:46;;;;;;;3.67;1.07;;;15.70;99.90;;;;;;5034964;28;20481;-45
2022/06/06 02:36:13;;;;;;;2.47;1.50;;;15.80;99.90;;;;;;5034658;28;20478;-46
2022/06/06 02:38:40;;;;;;;1.93;1.50;;;15.90;99.90;;;;;;5034438;28;20470;-45
2022/06/06 02:41:10;;;;;;;5.40;1.60;;;16.00;99.90;;;;;;5034102;28;20489;-46
2022/06/06 02:43:37;;;;;;;3.33;1.13;;;16.00;99.90;;;;;;5034536;28;20564;-46
2022/06/06 02:46:05;;;;;;;2.70;1.30;;;16.00;99.90;;;;;;5034648;28;20541;-45
2022/06/06 02:48:32;;;;;;;1.70;1.30;;;15.90;99.90;;;;;;5034543;28;20447;-45
2022/06/06 02:51:02;;;;;;;3.10;1.67;;;15.80;99.90;;;;;;5033954;28;20502;-46
2022/06/06 02:53:29;;;;;;;2.30;1.40;;;15.80;99.90;;;;;;5033884;28;20445;-44
2022/06/06 02:55:58;;;;;;;1.80;1.27;;;15.80;99.90;;;;;;5034361;28;20855;-45
2022/06/06 02:58:26;;;;;;;2.00;1.50;;;15.80;99.90;;;;;;5034561;28;20438;-46
2022/06/06 03:01:00;;;;;;;2.60;2.00;;;15.80;99.90;;;;;;5033960;28;20488;-45
2022/06/06 03:03:27;;;;;;;1.70;1.40;;;15.70;99.90;;;;;;5034305;28;20528;-45
2022/06/06 03:06:08;;;;;;;2.20;2.00;;;15.70;99.90;;;;;;5033891;28;20474;-45
2022/06/06 03:08:58;;;;;;;2.73;1.60;;;15.70;99.90;;;;;;5034070;28;20446;-45
2022/06/06 03:11:53;;;;;;;2.87;1.63;;;15.80;99.90;;;;;;5033722;28;20550;-45
2022/06/06 03:14:37;;;;;;;2.70;2.30;;;15.80;99.90;;;;;;5033397;28;20450;-46
2022/06/06 03:23:27;;;;;;;2.17;1.17;;;15.80;99.90;;;;;;5034098;28;20475;-45
2022/06/06 03:26:02;;;;;;;2.70;1.73;;;15.80;99.90;;;;;;5033780;28;20997;-46
2022/06/06 03:28:36;;;;;;;1.70;1.37;;;15.90;99.90;;;;;;5033717;28;20469;-44
2022/06/06 03:31:12;;;;;;;1.80;1.60;;;15.90;99.90;;;;;;5033659;28;20879;-46
2022/06/06 03:33:47;;;;;;;1.90;1.60;;;15.90;99.90;;;;;;5033509;28;20446;-46
2022/06/06 03:36:24;;;;;;;2.33;1.00;;;15.70;99.90;;;;;;5033241;28;20869;-46
2022/06/06 03:39:00;;;;;;;1.53;1.40;;;15.80;99.90;;;;;;5033216;28;20441;-44
2022/06/06 03:41:34;;;;;;;5.03;1.57;;;15.70;99.90;;;;;;5033594;28;20564;-46
2022/06/06 03:44:11;;;;;;;2.43;1.20;;;15.50;99.90;;;;;;5033518;28;20533;-46
2022/06/06 03:46:44;;;;;;;3.63;1.87;;;15.30;99.90;;;;;;5033421;28;20478;-45
2022/06/06 03:49:19;;;;;;;1.93;1.50;;;15.40;99.90;;;;;;5033125;28;20503;-45
2022/06/06 03:52:04;;;;;;;4.17;1.73;;;15.40;99.90;;;;;;5033170;28;20828;-46
2022/06/06 03:54:42;;;;;;;2.17;1.53;;;15.40;99.90;;;;;;5033282;28;20492;-46
2022/06/06 03:57:15;;;;;;;1.90;1.30;;;15.50;99.90;;;;;;5033251;28;20442;-45
2022/06/06 03:59:45;;;;;;;2.20;1.47;;;15.40;99.90;;;;;;5032475;28;21040;-45
2022/06/06 04:02:17;;;;;;;3.20;2.10;;;15.40;99.90;;;;;;5032997;28;20478;-46
2022/06/06 04:04:45;;;;;;;2.90;1.10;;;15.40;99.90;;;;;;5032930;28;20452;-46
2022/06/06 04:07:12;;;;;;;1.87;1.10;;;15.50;99.90;;;;;;5033083;28;20873;-45
2022/06/06 04:09:41;;;;;;;3.27;1.33;;;15.50;99.90;;;;;;5032174;28;20490;-45
2022/06/06 04:12:35;;;;;;;1.60;1.40;;;15.50;99.90;;;;;;5033072;28;20496;-46
2022/06/06 04:15:15;;;;;;;1.83;1.30;;;15.60;99.90;;;;;;5032381;28;20438;-45
2022/06/06 04:17:55;;;;;;;1.67;1.33;;;15.60;99.90;;;;;;5033057;28;20849;-45
2022/06/06 04:20:27;;;;;;;2.03;1.30;;;15.60;99.90;;;;;;5032646;28;20838;-45
2022/06/06 04:23:23;;;;;;;1.73;1.57;;;15.60;99.90;;;;;;5032996;28;20442;-45
2022/06/06 04:26:03;;;;;;;2.03;1.20;;;15.60;99.90;;;;;;5032649;28;20796;-45
2022/06/06 04:28:34;;;;;;;4.27;1.70;;;15.60;99.90;;;;;;5033158;28;20526;-46
2022/06/06 04:31:13;;;;;;;1.60;1.13;;;15.60;99.90;;;;;;5032477;28;20866;-45
2022/06/06 04:33:46;;;;;;;5.20;1.50;;;15.60;99.90;;;;;;5032655;28;20476;-48
2022/06/06 04:36:18;;;;;;;4.20;1.93;;;15.60;99.90;;;;;;5032362;28;20450;-45
2022/06/06 04:38:52;;;;;;;2.40;1.67;;;15.60;99.90;;;;;;5032010;28;20438;-45
2022/06/06 04:41:27;;;;;;;1.90;1.57;;;15.70;99.90;;;;;;5032176;28;20849;-45
2022/06/06 04:44:00;;;;;;;2.40;1.30;;;15.60;99.90;;;;;;5032429;28;20454;-45
2022/06/06 04:46:34;;;;;;;2.93;1.43;;;15.60;99.90;;;;;;5032300;28;20508;-45
2022/06/06 04:49:02;;;;;;;3.07;1.80;;;15.60;99.90;;;;;;5032000;28;20453;-45
2022/06/06 04:51:29;;;;;;;3.43;1.60;;;15.60;99.90;;;;;;5031546;28;20466;-46
2022/06/06 04:53:57;;;;;;;2.30;1.30;;;15.70;99.90;;;;;;5031889;28;20450;-45
2022/06/06 04:56:26;;;;;;;1.80;0.97;;;15.80;99.90;;;;;;5032050;28;20442;-45
2022/06/06 04:58:56;;;;;;;2.37;1.70;;;15.70;99.90;;;;;;5031827;28;20496;-47
2022/06/06 05:01:26;;;;;;;3.17;1.80;;;15.70;99.90;;;;;;5031923;28;20948;-44
2022/06/06 05:03:53;;;;;;;2.53;1.70;;;15.30;99.90;;;;;;5031688;28;20482;-45
2022/06/06 05:06:43;;;;;;;2.60;2.00;;;15.30;99.90;;;;;;5032079;28;20504;-46
2022/06/06 05:09:36;;;;;;;2.20;1.70;;;15.30;99.90;;;;;;5031667;28;20815;-46
2022/06/06 05:12:19;;;;;;;2.00;1.50;;;15.40;99.90;;;;;;5031736;28;20532;-45
2022/06/06 05:15:09;;;;;;;2.80;1.53;;;15.50;99.90;;;;;;5031249;28;20481;-45
2022/06/06 05:18:01;;;;;;;2.90;1.40;;;15.50;99.90;;;;;;5025580;28;20500;-46
2022/06/06 05:20:44;;;;;;;1.80;1.37;;;15.50;99.90;;;;;;5031661;28;20994;-45
2022/06/06 05:23:25;;;;;;;1.43;1.20;;;15.50;99.90;;;;;;5031972;28;20446;-45
2022/06/06 05:26:14;;;;;;;3.47;1.77;;;15.60;99.90;;;;;;5031576;28;20446;-46
2022/06/06 05:29:07;;;;;;;2.80;1.23;;;15.60;99.90;;;;;;5031137;28;20474;-45
2022/06/06 05:31:57;;;;;;;2.97;1.50;;;15.70;99.90;;;;;;5026778;28;21005;-45
2022/06/06 05:34:30;;;;;;;2.00;1.80;;;15.70;99.90;;;;;;5031432;28;20469;-46
2022/06/06 05:37:14;;;;;;;3.07;1.37;;;15.70;99.90;;;;;;5031516;28;20470;-46
2022/06/06 05:40:17;;;;;;;2.57;1.60;;;15.80;99.90;;;;;;5031408;28;20472;-45
2022/06/06 05:43:05;;;;;;;1.50;1.40;;;15.80;99.90;;;;;;5024400;28;20573;-45
2022/06/06 05:45:42;;;;;;;2.90;2.27;;;15.80;99.90;;;;;;5031709;28;20454;-46
2022/06/06 05:48:23;;;;;;;1.73;1.40;;;15.70;99.90;;;;;;5031197;28;20442;-45
2022/06/06 05:51:06;;;;;;;2.73;1.70;;;15.70;99.90;;;;;;5030749;28;20469;-45
2022/06/06 05:54:02;;;;;;;2.00;1.70;;;15.70;99.90;;;;;;5031088;28;20539;-46
2022/06/06 05:56:54;;;;;;;2.30;1.97;;;15.70;99.90;;;;;;5031257;28;20443;-46
2022/06/06 05:59:40;;;;;;;3.97;1.80;;;15.80;99.90;;;;;;5030772;28;20442;-45
2022/06/06 06:02:33;;;;;;;2.37;1.70;;;15.80;99.90;;;;;;5030952;28;20569;-46
2022/06/06 06:05:11;;;;;;;2.80;1.53;;;16.30;99.90;;;;;;5031396;28;20477;-45
2022/06/06 06:07:49;;;;;;;2.90;1.70;;;17.10;99.90;;;;;;5031155;28;20442;-47
2022/06/06 06:10:23;;;;;;;1.60;1.13;;;18.00;99.90;;;;;;5030673;28;20458;-46
2022/06/06 06:13:21;;;;;;;1.60;1.20;;;18.60;99.90;;;;;;5031148;28;20488;-46
2022/06/06 06:15:52;;;;;;;1.90;1.40;;;19.00;99.90;;;;;;5030763;28;20862;-46
2022/06/06 06:18:25;;;;;;;2.13;1.43;;;19.20;99.90;;;;;;5030769;28;20449;-46
2022/06/06 06:20:59;;;;;;;2.07;1.20;;;19.20;99.90;;;;;;5030820;28;20486;-47
2022/06/06 06:23:32;;;;;;;1.80;1.50;;;19.10;99.90;;;;;;5031064;28;20462;-46
2022/06/06 06:26:01;;;;;;;5.63;1.70;;;18.60;99.90;;;;;;5031055;28;20449;-46
2022/06/06 06:28:30;;;;;;;1.77;1.33;;;18.60;99.90;;;;;;5030932;28;20446;-45
2022/06/06 06:31:12;;;;;;;1.80;1.40;;;18.60;99.90;;;;;;5030852;28;20500;-47
2022/06/06 06:33:50;;;;;;;1.80;1.40;;;18.60;99.90;;;;;;5031076;28;20446;-45
2022/06/06 06:36:41;;;;;;;2.23;1.67;;;18.40;99.90;;;;;;5031023;28;20466;-48
2022/06/06 06:39:26;;;;;;;2.27;1.73;;;18.20;99.90;;;;;;5030749;28;20951;-46
2022/06/06 06:42:10;;;;;;;3.87;1.70;;;17.80;99.90;;;;;;5031008;28;20560;-45
2022/06/06 06:44:41;;;;;;;1.93;1.70;;;17.70;99.90;;;;;;5030844;28;20450;-45
2022/06/06 06:47:12;;;;;;;2.17;1.40;;;17.50;99.90;;;;;;5030804;28;20527;-48
2022/06/06 06:49:44;;;;;;;2.47;1.20;;;17.40;99.90;;;;;;5030206;28;20465;-46
2022/06/06 06:52:27;;;;;;;1.60;1.40;;;17.50;99.90;;;;;;5030469;28;20523;-46
2022/06/06 06:55:08;;;;;;;1.70;1.50;;;17.50;99.90;;;;;;5030765;28;20446;-46
2022/06/06 06:58:08;;;;;;;4.13;1.50;;;17.50;99.90;;;;;;5030634;28;20508;-46
2022/06/06 07:00:42;;;;;;;2.53;1.47;;;17.50;99.90;;;;;;5030455;28;20545;-46
2022/06/06 07:09:18;;;;;;;2.03;1.40;;;17.40;99.90;;;;;;5030177;28;20950;-45
2022/06/06 07:12:00;;;;;;;1.60;1.30;;;17.40;99.90;;;;;;5034129;28;20806;-46
2022/06/06 07:14:42;;;;;;;2.00;1.77;;;17.40;99.90;;;;;;5033987;28;20478;-46
2022/06/06 07:17:11;;;;;;;3.90;1.83;;;17.60;99.90;;;;;;5034012;28;20947;-45
2022/06/06 07:19:43;;;;;;;3.50;2.60;;;17.80;99.90;;;;;;5033623;28;20556;-45
2022/06/06 07:22:15;;;;;;;3.80;2.10;;;17.90;99.90;;;;;;5033892;28;20508;-47
2022/06/06 07:24:43;;;;;;;2.93;1.60;;;17.90;99.90;;;;;;5034107;28;20480;-45
2022/06/06 07:27:11;;;;;;;1.90;1.60;;;17.90;99.90;;;;;;5033970;28;20442;-46
2022/06/06 07:29:39;;;;;;;2.10;1.87;;;18.30;99.90;;;;;;5033544;28;20556;-46
2022/06/06 07:32:25;;;;;;;2.90;1.43;;;18.70;99.90;;;;;;5034035;28;20438;-46
2022/06/06 07:35:02;;;;;;;2.57;1.60;;;19.10;99.90;;;;;;5033758;28;20450;-47
2022/06/06 07:37:51;;;;;;;2.20;1.80;;;19.30;99.90;;;;;;5033832;28;20536;-47
2022/06/06 07:40:30;;;;;;;2.60;1.80;;;19.50;99.90;;;;;;5033561;28;20969;-46
2022/06/06 07:43:19;;;;;;;4.40;1.63;;;19.50;99.90;;;;;;5033595;28;20477;-46
2022/06/06 07:45:48;;;;;;;2.23;1.50;;;19.30;99.90;;;;;;5033796;28;20446;-46
2022/06/06 07:48:35;;;;;;;1.90;1.47;;;18.90;99.90;;;;;;5033381;28;20479;-45
2022/06/06 07:51:09;;;;;;;3.60;1.83;;;19.00;99.90;;;;;;5100805;22;20516;-47
2022/06/06 07:53:48;;;;;;;4.47;1.70;;;19.00;99.90;;;;;;5052446;28;20610;-50
2022/06/06 07:56:25;;;;;;;2.70;1.70;;;19.10;99.90;;;;;;5053369;28;20494;-47
2022/06/06 07:58:59;;;;;;;3.07;2.10;;;19.30;99.90;;;;;;5052695;28;20476;-46
2022/06/06 08:01:38;;;;;;;2.03;1.73;;;19.00;99.90;;;;;;5052978;28;20997;-46
2022/06/06 08:04:15;;;;;;;2.10;1.90;;;19.10;99.90;;;;;;5052973;28;20794;-51
2022/06/06 08:06:50;;;;;;;2.43;1.80;;;19.30;99.90;;;;;;5053229;28;20537;-47
2022/06/06 08:10:02;;;;;;;2.23;1.90;;;19.40;99.90;;;;;;5052572;28;20451;-51
2022/06/06 08:12:49;;;;;;;2.97;2.30;;;19.50;99.90;;;;;;5046070;28;20927;-47
2022/06/06 08:15:27;;;;;;;2.00;1.80;;;19.30;99.90;;;;;;5052596;28;20868;-47
2022/06/06 08:18:23;;;;;;;2.20;1.83;;;19.30;99.90;;;;;;5052740;28;20503;-48
2022/06/06 08:21:02;;;;;;;3.00;2.00;;;19.50;99.90;;;;;;5023456;28;20457;-51
2022/06/06 08:23:33;;;;;;;7.90;2.13;;;19.40;99.90;;;;;;5052727;28;20483;-47
2022/06/06 08:26:03;;;;;;;3.53;2.60;;;19.50;99.90;;;;;;5052333;28;20441;-51
2022/06/06 08:28:31;;;;;;;2.30;1.80;;;19.40;99.90;;;;;;5052479;28;20502;-46
2022/06/06 08:30:59;;;;;;;3.30;1.70;;;19.60;99.90;;;;;;5052656;28;20893;-51
2022/06/06 08:33:26;;;;;;;2.10;1.90;;;19.80;99.90;;;;;;5052202;28;20929;-46
2022/06/06 08:36:07;;;;;;;2.07;1.87;;;19.90;99.90;;;;;;5052530;28;20445;-49
2022/06/06 08:38:45;;;;;;;3.17;2.10;;;20.00;99.90;;;;;;5052480;28;20449;-47
2022/06/06 08:41:49;;;;;;;3.40;2.10;;;20.30;99.90;;;;;;5052246;28;20900;-47
2022/06/06 08:44:28;;;;;;;2.37;2.17;;;20.30;99.90;;;;;;5052234;28;20876;-47
2022/06/06 08:47:07;;;;;;;2.30;2.07;;;20.40;99.90;;;;;;5052265;28;20437;-47
2022/06/06 08:53:21;;;;;;;2.50;2.07;;;20.60;99.90;;;;;;5052265;28;20483;-47
2022/06/06 08:56:33;;;;;;;2.63;1.93;;;20.50;99.90;;;;;;4966715;28;20503;-50
2022/06/06 08:59:45;;;;;;;2.00;1.80;;;20.50;99.90;;;;;;4985386;28;20953;-47
2022/06/06 09:02:47;;;;;;;3.13;1.93;;;20.50;99.90;;;;;;5052107;28;20599;-47
2022/06/06 09:05:46;;;;;;;2.00;1.80;;;20.60;99.90;;;;;;5007987;28;20507;-43
2022/06/06 09:08:59;;;;;;;2.83;2.00;;;21.00;99.90;;;;;;5051592;28;20495;-44
2022/06/06 09:11:57;;;;;;;4.30;2.80;;;21.20;99.90;;;;;;5015049;28;20981;-44
2022/06/06 09:14:54;;;;;;;2.60;1.90;;;21.30;99.90;;;;;;5051380;28;20926;-45
2022/06/06 09:17:53;;;;;;;1.97;1.73;;;21.40;99.90;;;;;;5011017;28;20457;-44
2022/06/06 09:20:47;;;;;;;2.87;2.30;;;21.40;99.90;;;;;;5047758;28;20469;-45
2022/06/06 09:23:31;;;;;;;1.90;1.70;;;21.60;99.90;;;;;;5051479;28;20477;-45
2022/06/06 09:26:01;;;;;;;4.40;2.53;;;21.60;99.90;;;;;;5051865;28;20758;-44
2022/06/06 09:29:16;;;;;;;2.50;2.27;;;21.80;99.90;;;;;;5051537;28;20441;-45
2022/06/06 09:32:03;;;;;;;2.10;1.73;;;21.90;99.90;;;;;;5051175;28;20515;-44
2022/06/06 09:35:05;;;;;;;2.47;1.90;;;22.00;99.90;;;;;;5051266;28;20442;-44
2022/06/06 09:37:52;;;;;;;2.30;2.07;;;22.00;99.90;;;;;;5051159;28;20453;-44
2022/06/06 09:40:30;;;;;;;4.07;2.23;;;22.00;99.90;;;;;;5048624;28;20677;-44
2022/06/06 09:43:09;;;;;;;3.00;2.37;;;22.00;99.90;;;;;;5050742;28;20476;-49
2022/06/06 09:46:01;;;;;;;2.30;2.10;;;22.00;99.90;;;;;;5051144;28;20447;-44
2022/06/06 09:49:05;;;;;;;2.73;2.47;;;22.00;99.90;;;;;;5048050;28;20455;-44
2022/06/06 09:52:08;;;;;;;5.70;2.40;;;22.00;99.90;;;;;;5048451;28;20539;-43
2022/06/06 09:59:04;;;;;;;3.10;2.60;;;22.20;99.90;;;;;;5044731;28;20794;-44
2022/06/06 10:01:54;;;;;;;3.50;2.07;;;22.30;99.90;;;;;;5050695;28;20851;-44
2022/06/06 10:05:04;;;;;;;2.40;2.03;;;22.10;99.90;;;;;;5049262;28;20569;-44
2022/06/06 10:08:16;;;;;;;2.53;2.33;;;21.90;99.90;;;;;;5048144;28;20492;-46
2022/06/06 10:11:23;;;;;;;2.20;2.00;;;21.90;99.90;;;;;;5050300;28;20453;-44
2022/06/06 10:14:03;;;;;;;3.23;1.87;;;22.00;99.90;;;;;;5049168;28;20514;-44
2022/06/06 10:16:46;;;;;;;2.80;2.03;;;22.00;99.90;;;;;;5046970;28;20441;-45
2022/06/06 10:19:32;;;;;;;8.83;2.70;;;22.00;99.90;;;;;;5049104;28;21016;-44
2022/06/06 10:22:26;;;;;;;2.93;2.10;;;22.10;99.90;;;;;;5050618;28;20469;-44
2022/06/06 10:25:25;;;;;;;3.87;2.30;;;22.20;99.90;;;;;;5050020;28;20464;-43
2022/06/06 10:28:06;;;;;;;2.33;1.83;;;22.10;99.90;;;;;;5043006;28;20460;-44
2022/06/06 10:30:49;;;;;;;2.90;2.47;;;22.20;99.90;;;;;;5050234;28;20489;-45
2022/06/06 10:33:41;;;;;;;3.20;2.60;;;22.20;99.90;;;;;;5049275;28;20964;-44
2022/06/06 10:36:31;;;;;;;2.50;2.30;;;22.30;99.90;;;;;;5047065;28;20530;-40
2022/06/06 10:39:24;;;;;;;3.60;2.07;;;22.20;99.90;;;;;;5047852;28;20782;-44
2022/06/06 10:42:22;;;;;;;2.77;2.40;;;22.30;99.90;;;;;;5043897;28;20528;-46
2022/06/06 10:45:23;;;;;;;5.40;2.63;;;22.20;99.90;;;;;;5051709;28;20449;-51
2022/06/06 10:48:18;;;;;;;3.87;2.50;;;22.40;99.90;;;;;;5052845;28;20864;-45
2022/06/06 10:54:36;;;;;;;2.97;2.27;;;22.40;99.90;;;;;;5053941;28;20420;-47
2022/06/06 10:57:26;;;;;;;3.83;2.50;;;22.40;99.90;;;;;;5054434;28;20440;-45
2022/06/06 11:00:13;;;;;;;3.10;2.70;;;22.40;99.90;;;;;;5053924;28;20451;-45
2022/06/06 11:03:14;;;;;;;2.47;2.27;;;22.50;99.90;;;;;;5054185;28;20449;-48
2022/06/06 11:06:16;;;;;;;1.93;1.80;;;22.50;99.90;;;;;;5054221;28;20503;-44
2022/06/06 11:09:25;;;;;;;3.27;2.47;;;22.50;99.90;;;;;;5053618;28;20519;-45
2022/06/06 11:12:38;;;;;;;3.13;2.00;;;22.60;99.90;;;;;;5053923;28;20530;-44
2022/06/06 11:15:05;;;;;;;2.67;2.43;;;22.60;99.90;;;;;;5053595;28;21012;-46
2022/06/06 11:18:23;;;;;;;3.47;2.20;;;22.70;99.90;;;;;;5053629;28;20441;-45
2022/06/06 11:21:15;;;;;;;2.60;2.40;;;22.80;99.90;;;;;;5053558;28;20615;-44
2022/06/06 11:23:47;;;;;;;2.73;2.50;;;22.80;99.90;;;;;;5053531;28;20534;-45
2022/06/06 11:26:41;;;;;;;3.00;1.97;;;22.90;99.90;;;;;;5053316;28;20802;-45
2022/06/06 11:29:29;;;;;;;2.37;1.80;;;22.90;99.90;;;;;;5053002;28;20457;-49
2022/06/06 11:32:16;;;;;;;2.30;2.10;;;23.00;99.90;;;;;;5053745;28;20519;-44
2022/06/06 11:35:13;;;;;;;2.90;2.00;;;23.00;99.90;;;;;;5053718;28;20441;-46
2022/06/06 11:38:23;;;;;;;4.00;2.60;;;23.10;99.90;;;;;;5053958;28;20859;-45
2022/06/06 11:41:21;;;;;;;2.77;2.40;;;23.10;99.90;;;;;;5052188;28;20460;-45
2022/06/06 11:44:12;;;;;;;2.57;2.37;;;23.20;99.90;;;;;;5051880;28;20530;-43
2022/06/06 11:47:09;;;;;;;4.33;1.97;;;23.20;99.90;;;;;;5052356;28;20506;-47
2022/06/06 11:50:10;;;;;;;2.70;2.30;;;23.20;99.90;;;;;;5052001;28;20503;-44
2022/06/06 11:53:11;;;;;;;2.93;2.00;;;23.30;99.90;;;;;;5052969;28;21062;-49
2022/06/06 11:55:59;;;;;;;3.03;2.57;;;23.30;99.90;;;;;;5052297;28;20533;-44
2022/06/06 11:59:05;;;;;;;3.00;2.10;;;23.40;99.90;;;;;;5052938;28;20439;-45
2022/06/06 12:02:00;;;;;;;2.40;1.80;;;23.40;99.90;;;;;;5052668;28;20516;-49
2022/06/06 12:04:59;;;;;;;6.47;1.67;;;23.40;99.90;;;;;;5046061;28;20477;-44
2022/06/06 12:07:56;;;;;;;1.87;1.73;;;23.50;99.90;;;;;;5039866;28;20449;-44
2022/06/06 12:10:25;;;;;;;3.80;1.57;;;23.50;99.90;;;;;;5052209;28;20548;-44
2022/06/06 12:13:31;;;;;;;2.37;1.50;;;23.50;99.90;;;;;;5052702;28;20472;-44
2022/06/06 12:16:22;;;;;;;2.27;1.70;;;23.60;99.90;;;;;;5039226;28;20850;-44
2022/06/06 12:19:20;;;;;;;2.90;1.80;;;23.70;99.90;;;;;;5049058;28;20532;-48
2022/06/06 12:22:23;;;;;;;2.60;2.40;;;23.60;99.90;;;;;;5051271;28;20540;-49
2022/06/06 12:25:27;;;;;;;2.90;1.57;;;23.70;99.90;;;;;;5051297;28;20508;-46
2022/06/06 12:28:36;;;;;;;2.70;1.70;;;23.70;99.90;;;;;;5052778;28;20464;-44
2022/06/06 12:31:29;;;;;;;2.80;1.87;;;23.70;99.90;;;;;;5035171;28;20500;-44
2022/06/06 12:34:00;;;;;;;1.30;1.13;;;23.80;99.90;;;;;;5038738;28;20953;-46
2022/06/06 12:36:34;;;;;;;1.90;1.40;;;23.90;99.90;;;;;;5052034;28;20441;-44
2022/06/06 12:39:06;;;;;;;2.20;1.70;;;23.90;99.90;;;;;;5051973;28;20443;-45
2022/06/06 12:41:53;;;;;;;2.07;1.53;;;23.90;99.90;;;;;;5051235;28;20504;-45
2022/06/06 12:44:48;;;;;;;2.37;2.00;;;23.90;99.90;;;;;;5048182;28;20469;-44
2022/06/06 12:47:32;;;;;;;3.30;1.87;;;23.90;99.90;;;;;;5048965;28;20456;-45
2022/06/06 12:50:19;;;;;;;2.80;1.43;;;23.90;99.90;;;;;;5048541;28;20921;-49
2022/06/06 12:53:24;;;;;;;2.00;1.40;;;24.00;99.90;;;;;;5052227;28;20441;-45
2022/06/06 12:59:00;;;;;;;1.57;1.33;;;24.10;99.90;;;;;;5051929;28;20440;-44
2022/06/06 13:01:39;;;;;;;3.70;2.00;;;24.20;99.90;;;;;;5051586;28;20493;-44
2022/06/06 13:04:33;;;;;;;1.80;1.70;;;24.30;99.90;;;;;;5051753;28;20907;-49
2022/06/06 13:07:16;;;;;;;2.37;1.50;;;24.30;99.90;;;;;;5051720;28;20536;-44
2022/06/06 13:09:58;;;;;;;2.60;1.87;;;24.40;99.90;;;;;;5050440;28;20949;-44
2022/06/06 13:12:42;;;;;;;1.90;1.37;;;24.40;99.90;;;;;;5050629;28;20499;-44
2022/06/06 13:15:21;;;;;;;3.73;1.50;;;24.30;99.90;;;;;;5050987;28;20522;-46
2022/06/06 13:17:58;;;;;;;4.30;1.60;;;24.20;99.90;;;;;;5051997;28;20441;-44
2022/06/06 13:20:39;;;;;;;12.13;2.90;;;24.30;99.90;;;;;;5047965;28;20457;-49
2022/06/06 13:23:41;;;;;;;1.73;1.40;;;24.40;99.90;;;;;;5051759;28;20441;-45
2022/06/06 13:26:33;;;;;;;1.70;1.50;;;24.30;99.90;;;;;;5019511;28;20452;-44
2022/06/06 13:29:00;;;;;;;2.73;1.73;;;24.30;99.90;;;;;;5051015;28;20441;-44
2022/06/06 13:31:41;;;;;;;38.33;4.80;;;24.20;99.90;;;;;;5050671;28;20498;-44
2022/06/06 13:34:21;;;;;;;2.23;1.90;;;24.30;99.90;;;;;;5051507;28;20512;-47
2022/06/06 13:37:09;;;;;;;2.30;1.67;;;24.30;99.90;;;;;;5049297;28;20437;-45
2022/06/06 13:40:02;;;;;;;1.93;1.57;;;24.20;99.90;;;;;;5050623;28;20446;-44
2022/06/06 13:42:57;;;;;;;4.00;2.07;;;24.10;99.90;;;;;;5018683;28;20460;-44
2022/06/06 13:45:31;;;;;;;2.57;1.63;;;24.10;99.90;;;;;;5037927;28;20571;-46
2022/06/06 13:48:21;;;;;;;1.53;1.43;;;24.20;99.90;;;;;;5050553;28;20991;-44
2022/06/06 13:50:59;;;;;;;3.87;2.30;;;24.10;99.90;;;;;;5079418;22;20539;-46
2022/06/06 13:53:58;;;;;;;2.43;1.70;;;24.10;99.90;;;;;;5090176;28;20468;-47
2022/06/06 13:56:57;;;;;;;5.83;2.07;;;24.20;99.90;;;;;;5089586;28;20519;-47
2022/06/06 13:59:45;;;;;;;2.27;1.60;;;24.20;99.90;;;;;;5081119;28;20500;-46
2022/06/06 14:02:28;;;;;;;2.57;1.80;;;24.30;99.90;;;;;;5082854;28;20538;-46
2022/06/06 14:05:19;;;;;;;3.33;1.60;;;24.20;99.90;;;;;;5069763;28;20564;-45
2022/06/06 14:07:58;;;;;;;7.80;2.30;;;24.10;99.90;;;;;;5071300;28;20440;-46
2022/06/06 14:10:37;;;;;;;2.23;1.63;;;23.90;99.90;;;;;;5070838;28;20440;-45
2022/06/06 14:13:14;;;;;;;8.40;3.00;;;23.80;99.90;;;;;;5070555;28;20448;-46
2022/06/06 14:15:44;;;;;;;2.47;2.07;;;23.80;99.90;;;;;;5071019;28;20444;-51
2022/06/06 14:18:14;;;;;;;3.40;1.60;;;23.80;99.90;;;;;;5070791;28;20468;-48
2022/06/06 14:20:46;;;;;;;4.00;2.40;;;23.80;99.90;;;;;;5074619;28;20505;-48
2022/06/06 14:23:21;;;;;;;9.33;2.00;;;23.80;99.90;;;;;;5073818;28;20440;-50
2022/06/06 14:25:51;;;;;;;2.90;2.30;;;23.80;99.90;;;;;;5073966;28;20803;-47
2022/06/06 14:28:19;;;;;;;1.97;1.77;;;23.70;99.90;;;;;;5073682;28;20479;-48
2022/06/06 14:30:46;;;;;;;2.57;1.90;;;23.80;99.90;;;;;;5073768;28;20525;-49